createdAt,value
2019-03-20T00:03:06.479Z,60.70
2019-03-20T00:07:09.475Z,61.00
2019-03-20T00:11:13.559Z,60.50
2019-03-20T00:15:16.604Z,61.60
2019-03-20T00:19:19.756Z,61.90
2019-03-20T00:23:22.748Z,62.10
2019-03-20T00:27:25.819Z,62.20
2019-03-20T00:31:28.924Z,61.70
2019-03-20T00:35:31.920Z,61.70
2019-03-20T00:39:35.008Z,61.90
2019-03-20T00:43:38.021Z,61.70
2019-03-20T00:47:43.342Z,61.60
2019-03-20T00:51:46.357Z,62.50
2019-03-20T00:55:49.355Z,63.20
2019-03-20T00:59:52.443Z,63.20
2019-03-20T01:03:55.445Z,62.90
2019-03-20T01:07:58.440Z,62.90
2019-03-20T01:12:01.426Z,63.50
2019-03-20T01:16:04.424Z,63.10
2019-03-20T01:20:15.627Z,63.10
2019-03-20T01:24:18.715Z,62.90
2019-03-20T01:28:21.707Z,63.00
2019-03-20T01:32:24.817Z,62.40
2019-03-20T01:36:27.811Z,62.90
2019-03-20T01:40:30.946Z,63.80
2019-03-20T01:44:34.007Z,64.70
2019-03-20T01:48:38.548Z,65.40
2019-03-20T01:52:41.634Z,65.40
2019-03-20T01:56:44.640Z,66.00
2019-03-20T02:00:47.632Z,66.50
2019-03-20T02:04:50.631Z,66.50
2019-03-20T02:08:53.725Z,66.30
2019-03-20T02:12:58.682Z,66.50
2019-03-20T02:17:01.644Z,66.50
2019-03-20T02:21:04.643Z,66.10
2019-03-20T02:25:09.155Z,66.90
2019-03-20T02:29:12.162Z,66.60
2019-03-20T02:33:15.286Z,66.40
2019-03-20T02:37:18.279Z,66.20
2019-03-20T02:41:21.279Z,66.40
2019-03-20T02:45:24.298Z,66.20
2019-03-20T02:49:28.368Z,66.80
2019-03-20T02:53:32.397Z,66.60
2019-03-20T02:57:35.401Z,67.30
2019-03-20T03:01:38.403Z,66.90
2019-03-20T03:05:41.417Z,66.70
2019-03-20T03:09:44.407Z,66.50
2019-03-20T03:13:47.428Z,66.40
2019-03-20T03:17:50.434Z,65.50
2019-03-20T03:21:53.440Z,65.20
2019-03-20T03:25:56.456Z,65.70
2019-03-20T03:29:59.463Z,65.90
2019-03-20T03:34:02.475Z,65.90
2019-03-20T03:38:05.468Z,65.70
2019-03-20T03:42:08.562Z,65.40
2019-03-20T03:46:11.563Z,66.00
2019-03-20T03:50:15.525Z,65.80
2019-03-20T03:54:18.532Z,66.60
2019-03-20T03:58:21.534Z,67.10
2019-03-20T04:02:24.540Z,66.70
2019-03-20T04:06:35.507Z,67.30
2019-03-20T04:10:32.519Z,67.60
2019-03-20T04:14:35.567Z,68.20
2019-03-20T04:18:38.674Z,68.80
2019-03-20T04:22:41.680Z,68.90
2019-03-20T04:26:44.682Z,68.40
2019-03-20T04:30:47.663Z,69.00
2019-03-20T04:34:50.703Z,69.00
2019-03-20T04:38:53.684Z,68.40
2019-03-20T04:42:56.679Z,68.60
2019-03-20T04:47:02.740Z,68.40
2019-03-20T04:51:07.228Z,69.40
2019-03-20T04:55:11.583Z,69.10
2019-03-20T04:59:14.578Z,68.60
2019-03-20T05:03:17.578Z,69.10
2019-03-20T05:07:20.669Z,69.30
2019-03-20T05:11:23.772Z,69.50
2019-03-20T05:15:26.806Z,69.40
2019-03-20T05:19:29.998Z,69.70
2019-03-20T05:23:32.994Z,69.70
2019-03-20T05:27:36.089Z,69.40
2019-03-20T05:31:39.095Z,69.40
2019-03-20T05:35:44.090Z,68.80
2019-03-20T05:39:47.097Z,68.10
2019-03-20T05:43:50.196Z,67.80
2019-03-20T05:47:54.292Z,67.50
2019-03-20T05:51:59.643Z,69.00
2019-03-20T05:56:02.741Z,68.10
2019-03-20T06:00:09.150Z,67.90
2019-03-20T06:04:12.272Z,68.70
2019-03-20T06:08:15.279Z,68.20
2019-03-20T06:12:20.368Z,67.30
2019-03-20T06:16:23.367Z,66.90
2019-03-20T06:20:26.371Z,67.30
2019-03-20T06:24:29.362Z,66.00
2019-03-20T06:28:32.371Z,65.20
2019-03-20T06:32:35.469Z,63.40
2019-03-20T06:36:38.458Z,63.40
2019-03-20T06:40:43.522Z,62.70
2019-03-20T06:44:46.644Z,62.30
2019-03-20T06:48:49.631Z,62.40
2019-03-20T06:52:53.018Z,63.30
2019-03-20T06:56:56.087Z,63.30
2019-03-20T07:01:14.446Z,63.00
2019-03-20T07:05:44.100Z,61.50
2019-03-20T07:09:57.165Z,59.20
2019-03-20T07:14:00.214Z,58.10
2019-03-20T07:18:03.260Z,57.00
2019-03-20T07:22:06.268Z,56.60
2019-03-20T07:26:09.269Z,55.90
2019-03-20T07:30:12.327Z,55.20
2019-03-20T07:34:15.433Z,53.20
2019-03-20T07:38:18.535Z,52.20
2019-03-20T07:42:21.612Z,50.80
2019-03-20T07:46:24.710Z,48.60
2019-03-20T07:50:27.808Z,45.40
2019-03-20T07:54:31.909Z,44.30
2019-03-20T07:58:35.252Z,42.10
2019-03-20T08:02:38.350Z,41.00
2019-03-20T08:06:41.499Z,39.00
2019-03-20T08:10:44.548Z,38.00
2019-03-20T08:14:47.660Z,39.10
2019-03-20T08:18:50.729Z,34.80
2019-03-20T08:22:54.794Z,34.50
2019-03-20T08:26:57.925Z,34.30
2019-03-20T08:31:01.000Z,32.80
2019-03-20T08:35:06.565Z,30.40
2019-03-20T08:39:09.741Z,31.40
2019-03-20T08:43:12.953Z,30.60
2019-03-20T08:47:16.027Z,28.60
2019-03-20T08:51:19.102Z,28.90
2019-03-20T08:55:23.111Z,28.90
2019-03-20T08:59:26.302Z,27.30
2019-03-20T09:03:29.299Z,27.90
2019-03-20T09:07:33.383Z,26.70
2019-03-20T09:11:36.492Z,27.60
2019-03-20T09:15:39.561Z,28.90
2019-03-20T09:19:42.680Z,27.90
2019-03-20T09:23:45.787Z,27.20
2019-03-20T09:27:49.119Z,26.30
2019-03-20T09:31:52.185Z,28.20
2019-03-20T09:35:55.207Z,26.80
2019-03-20T09:39:58.280Z,26.60
2019-03-20T09:44:01.381Z,27.00
2019-03-20T09:55:54.629Z,24.50
2019-03-20T09:59:57.633Z,25.30
2019-03-20T10:04:00.675Z,27.80
2019-03-20T10:08:03.676Z,25.90
2019-03-20T10:12:06.806Z,25.70
2019-03-20T10:16:09.913Z,25.60
2019-03-20T10:24:02.431Z,24.70
2019-03-20T10:28:05.434Z,24.20
2019-03-20T10:32:08.443Z,24.30
2019-03-20T10:36:11.463Z,23.10
2019-03-20T10:40:19.353Z,24.30
2019-03-20T10:44:22.368Z,23.30
2019-03-20T10:48:25.487Z,24.10
2019-03-20T10:52:28.511Z,25.40
2019-03-20T10:56:32.655Z,24.50
2019-03-20T11:00:35.663Z,23.90
2019-03-20T11:04:38.697Z,24.30
2019-03-20T11:08:41.706Z,25.10
2019-03-20T11:12:45.050Z,24.00
2019-03-20T11:16:48.075Z,24.10
2019-03-20T11:20:53.521Z,24.60
2019-03-20T11:24:56.054Z,25.90
2019-03-20T11:28:59.053Z,43.80
2019-03-20T11:33:02.176Z,26.10
2019-03-20T11:37:05.179Z,24.40
2019-03-20T11:41:08.177Z,25.30
2019-03-20T11:45:11.492Z,25.50
2019-03-20T11:49:14.563Z,23.60
2019-03-20T11:53:17.564Z,25.20
2019-03-20T11:57:21.745Z,25.80
2019-03-20T12:01:24.829Z,26.10
2019-03-20T12:05:27.822Z,25.70
2019-03-20T12:09:40.681Z,27.60
2019-03-20T12:13:35.898Z,25.20
2019-03-20T12:17:38.911Z,27.80
2019-03-20T12:21:41.961Z,25.10
2019-03-20T12:25:44.997Z,25.10
2019-03-20T12:29:48.003Z,24.90
2019-03-20T12:33:51.118Z,25.30
2019-03-20T12:37:54.212Z,24.60
2019-03-20T12:41:57.210Z,27.50
2019-03-20T12:46:00.223Z,26.00
2019-03-20T12:50:07.043Z,25.60
2019-03-20T12:54:10.073Z,25.50
2019-03-20T12:58:14.695Z,26.50
2019-03-20T13:02:17.707Z,26.90
2019-03-20T13:06:20.739Z,25.60
2019-03-20T13:10:24.915Z,25.60
2019-03-20T13:14:27.952Z,26.00
2019-03-20T13:18:30.948Z,34.80
2019-03-20T13:22:33.987Z,33.00
2019-03-20T13:26:37.004Z,30.70
2019-03-20T13:30:52.342Z,26.30
2019-03-20T13:34:55.340Z,26.40
2019-03-20T13:38:58.430Z,26.60
2019-03-20T13:43:01.679Z,25.50
2019-03-20T13:47:04.837Z,25.70
2019-03-20T13:51:07.863Z,28.10
2019-03-20T13:55:12.673Z,25.60
2019-03-20T13:59:16.241Z,25.30
2019-03-20T14:03:19.283Z,28.10
2019-03-20T14:07:22.392Z,27.60
2019-03-20T14:11:25.388Z,24.90
2019-03-20T14:15:28.477Z,25.40
2019-03-20T14:19:31.562Z,28.10
2019-03-20T14:23:34.573Z,27.50
2019-03-20T14:27:38.048Z,29.50
2019-03-20T14:31:41.080Z,25.10
2019-03-20T14:35:44.189Z,26.50
2019-03-20T14:39:47.192Z,25.80
2019-03-20T14:43:50.196Z,27.10
2019-03-20T14:47:53.216Z,25.50
2019-03-20T14:51:56.229Z,25.60
2019-03-20T14:55:59.226Z,26.60
2019-03-20T15:00:10.496Z,25.70
2019-03-20T15:04:13.674Z,24.80
2019-03-20T15:08:16.866Z,25.80
2019-03-20T15:12:20.064Z,26.50
2019-03-20T15:16:23.188Z,27.30
2019-03-20T15:20:26.319Z,26.90
2019-03-20T15:24:29.591Z,26.90
2019-03-20T15:28:32.826Z,27.20
2019-03-20T15:32:36.370Z,28.30
2019-03-20T15:36:39.623Z,27.90
2019-03-20T15:40:42.872Z,28.90
2019-03-20T15:44:46.070Z,29.60
2019-03-20T15:48:49.218Z,29.10
2019-03-20T15:52:52.481Z,28.80
2019-03-20T15:56:56.134Z,28.90
2019-03-20T16:01:00.337Z,30.00
2019-03-20T16:05:05.387Z,29.60
2019-03-20T16:09:08.571Z,30.60
2019-03-20T16:13:11.891Z,30.00
2019-03-20T16:17:15.067Z,30.10
2019-03-20T16:21:18.317Z,30.20
2019-03-20T16:25:23.364Z,31.30
2019-03-20T16:29:26.437Z,30.10
2019-03-20T16:33:29.635Z,29.50
2019-03-20T16:37:32.630Z,30.60
2019-03-20T16:41:35.622Z,30.90
2019-03-20T16:45:38.627Z,31.50
2019-03-20T16:49:41.675Z,30.20
2019-03-20T16:53:44.735Z,30.80
2019-03-20T16:57:47.753Z,30.70
2019-03-20T17:01:51.289Z,30.60
2019-03-20T17:05:54.512Z,31.00
2019-03-20T17:09:57.565Z,30.80
2019-03-20T17:14:00.822Z,31.10
2019-03-20T17:18:04.940Z,34.10
2019-03-20T17:22:07.926Z,32.20
2019-03-20T17:26:10.942Z,33.90
2019-03-20T17:30:31.483Z,34.20
2019-03-20T17:34:37.431Z,34.00
2019-03-20T17:38:43.422Z,31.80
2019-03-20T17:42:50.284Z,32.40
2019-03-20T17:47:03.167Z,32.50
2019-03-20T17:51:11.562Z,33.20
2019-03-20T17:55:18.401Z,35.10
2019-03-20T17:59:22.366Z,34.40
2019-03-20T18:03:29.778Z,33.50
2019-03-20T18:07:43.632Z,34.70
2019-03-20T18:11:50.682Z,36.20
2019-03-20T18:15:57.057Z,37.30
2019-03-20T18:20:00.809Z,38.50
2019-03-20T18:24:09.025Z,40.00
2019-03-20T18:28:12.733Z,40.20
2019-03-20T18:32:16.668Z,40.00
2019-03-20T18:36:24.701Z,42.00
2019-03-20T18:40:32.718Z,43.20
2019-03-20T18:44:42.861Z,42.60
2019-03-20T18:48:49.273Z,43.30
2019-03-20T18:52:53.623Z,44.70
2019-03-20T18:56:57.683Z,44.00
2019-03-20T19:01:00.865Z,45.00
2019-03-20T19:05:10.327Z,45.30
2019-03-20T19:09:13.513Z,44.60
2019-03-20T19:13:16.616Z,45.40
2019-03-20T19:17:19.602Z,45.30
2019-03-20T19:21:22.665Z,44.80
2019-03-20T19:25:25.864Z,46.40
2019-03-20T19:29:28.861Z,46.70
2019-03-20T19:33:31.875Z,47.10
2019-03-20T19:37:34.897Z,47.50
2019-03-20T19:41:37.903Z,47.50
2019-03-20T19:45:40.904Z,47.60
2019-03-20T19:49:43.974Z,48.60
2019-03-20T19:53:46.993Z,49.30
2019-03-20T19:57:50.003Z,49.50
2019-03-20T20:01:53.020Z,49.20
2019-03-20T20:05:56.614Z,50.10
2019-03-20T20:09:59.609Z,49.70
2019-03-20T20:14:02.809Z,49.20
2019-03-20T20:18:05.812Z,48.50
2019-03-20T20:22:08.826Z,48.20
2019-03-20T20:26:11.821Z,48.20
2019-03-20T20:30:17.241Z,46.60
2019-03-20T20:34:20.298Z,48.10
2019-03-20T20:38:23.422Z,50.20
2019-03-20T20:42:26.513Z,49.80
2019-03-20T20:46:29.588Z,50.60
2019-03-20T20:50:32.739Z,51.10
2019-03-20T20:54:35.872Z,49.80
2019-03-20T20:58:38.865Z,49.00
2019-03-20T21:02:41.865Z,50.40
2019-03-20T21:06:45.876Z,51.50
2019-03-20T21:10:48.874Z,51.40
2019-03-20T21:14:51.861Z,50.80
2019-03-20T21:19:19.755Z,50.40
2019-03-20T21:23:38.698Z,49.70
2019-03-20T21:28:14.024Z,50.70
2019-03-20T21:32:35.933Z,51.30
2019-03-20T21:37:17.575Z,51.60
2019-03-20T21:41:30.399Z,51.80
2019-03-20T21:45:54.794Z,51.50
2019-03-20T21:49:59.947Z,49.80
2019-03-20T21:54:32.614Z,49.50
2019-03-20T21:58:39.335Z,50.80
2019-03-20T22:02:43.146Z,51.50
2019-03-20T22:07:06.855Z,52.20
2019-03-20T22:11:32.698Z,51.70
2019-03-20T22:16:05.702Z,51.50
2019-03-20T22:20:27.916Z,51.00
2019-03-20T22:25:08.406Z,51.10
2019-03-20T22:29:24.389Z,51.70
2019-03-20T22:34:05.124Z,51.70
2019-03-20T22:38:11.910Z,52.40
2019-03-20T22:42:24.207Z,51.50
2019-03-20T22:46:31.011Z,51.20
2019-03-20T22:50:43.269Z,50.40
2019-03-20T22:55:12.688Z,48.60
2019-03-20T22:59:15.691Z,48.80
2019-03-20T23:03:25.374Z,51.30
2019-03-20T23:07:28.977Z,51.40
2019-03-20T23:11:31.956Z,52.10
2019-03-20T23:15:36.640Z,52.20
2019-03-20T23:19:42.955Z,52.90
2019-03-20T23:23:48.842Z,54.10
2019-03-20T23:27:51.881Z,54.80
2019-03-20T23:31:54.947Z,55.90
2019-03-20T23:35:57.944Z,56.40
2019-03-20T23:40:00.924Z,56.70
2019-03-20T23:44:03.936Z,57.10
2019-03-20T23:48:13.755Z,57.20
2019-03-20T23:52:16.736Z,57.50
2019-03-20T23:56:20.236Z,58.30
